sensor_id;sensor_type;location;lat;lon;timestamp;P1;durP1;ratioP1;P2;durP2;ratioP2
66175;SDS011;52977;44.816;20.538;2022-07-22T00:01:26;9.73;;;5.68;;
66175;SDS011;52977;44.816;20.538;2022-07-22T00:03:52;11.00;;;5.95;;
66175;SDS011;52977;44.816;20.538;2022-07-22T00:06:18;13.05;;;6.07;;
66175;SDS011;52977;44.816;20.538;2022-07-22T00:08:43;9.10;;;5.18;;
66175;SDS011;52977;44.816;20.538;2022-07-22T00:11:09;13.23;;;5.60;;
66175;SDS011;52977;44.816;20.538;2022-07-22T00:13:35;10.60;;;5.60;;
66175;SDS011;52977;44.816;20.538;2022-07-22T00:16:01;9.93;;;5.35;;
66175;SDS011;52977;44.816;20.538;2022-07-22T00:18:26;12.20;;;5.97;;
66175;SDS011;52977;44.816;20.538;2022-07-22T00:20:52;15.27;;;5.60;;
66175;SDS011;52977;44.816;20.538;2022-07-22T00:23:18;10.32;;;5.35;;
66175;SDS011;52977;44.816;20.538;2022-07-22T00:25:44;13.60;;;5.70;;
66175;SDS011;52977;44.816;20.538;2022-07-22T00:28:09;15.20;;;5.50;;
66175;SDS011;52977;44.816;20.538;2022-07-22T00:30:35;13.75;;;6.03;;
66175;SDS011;52977;44.816;20.538;2022-07-22T00:33:01;17.23;;;5.47;;
66175;SDS011;52977;44.816;20.538;2022-07-22T00:35:26;10.30;;;5.75;;
66175;SDS011;52977;44.816;20.538;2022-07-22T00:37:52;10.95;;;6.00;;
66175;SDS011;52977;44.816;20.538;2022-07-22T00:40:18;13.38;;;6.22;;
66175;SDS011;52977;44.816;20.538;2022-07-22T00:42:44;11.57;;;6.07;;
66175;SDS011;52977;44.816;20.538;2022-07-22T00:45:09;10.15;;;5.30;;
66175;SDS011;52977;44.816;20.538;2022-07-22T00:47:36;12.43;;;5.57;;
66175;SDS011;52977;44.816;20.538;2022-07-22T00:50:02;12.15;;;5.88;;
66175;SDS011;52977;44.816;20.538;2022-07-22T00:52:30;12.40;;;5.70;;
66175;SDS011;52977;44.816;20.538;2022-07-22T00:54:58;11.95;;;5.85;;
66175;SDS011;52977;44.816;20.538;2022-07-22T00:57:24;9.45;;;5.22;;
66175;SDS011;52977;44.816;20.538;2022-07-22T00:59:50;9.57;;;5.20;;
66175;SDS011;52977;44.816;20.538;2022-07-22T01:02:16;12.50;;;5.32;;
66175;SDS011;52977;44.816;20.538;2022-07-22T01:04:42;10.20;;;4.97;;
66175;SDS011;52977;44.816;20.538;2022-07-22T01:07:08;14.82;;;5.57;;
66175;SDS011;52977;44.816;20.538;2022-07-22T01:09:34;9.52;;;5.20;;
66175;SDS011;52977;44.816;20.538;2022-07-22T01:12:00;12.52;;;5.53;;
66175;SDS011;52977;44.816;20.538;2022-07-22T01:14:26;9.65;;;5.10;;
66175;SDS011;52977;44.816;20.538;2022-07-22T01:16:52;9.18;;;5.65;;
66175;SDS011;52977;44.816;20.538;2022-07-22T01:19:17;13.75;;;5.32;;
66175;SDS011;52977;44.816;20.538;2022-07-22T01:21:44;9.25;;;4.80;;
66175;SDS011;52977;44.816;20.538;2022-07-22T01:24:10;10.18;;;4.93;;
66175;SDS011;52977;44.816;20.538;2022-07-22T01:26:35;8.75;;;4.80;;
66175;SDS011;52977;44.816;20.538;2022-07-22T01:29:01;13.20;;;5.60;;
66175;SDS011;52977;44.816;20.538;2022-07-22T01:31:27;10.60;;;4.93;;
66175;SDS011;52977;44.816;20.538;2022-07-22T01:33:54;8.55;;;4.65;;
66175;SDS011;52977;44.816;20.538;2022-07-22T01:36:20;8.75;;;4.70;;
66175;SDS011;52977;44.816;20.538;2022-07-22T01:38:46;9.57;;;4.80;;
66175;SDS011;52977;44.816;20.538;2022-07-22T01:41:12;7.65;;;4.70;;
66175;SDS011;52977;44.816;20.538;2022-07-22T01:43:38;9.68;;;4.97;;
66175;SDS011;52977;44.816;20.538;2022-07-22T01:46:07;11.38;;;4.97;;
66175;SDS011;52977;44.816;20.538;2022-07-22T01:48:36;12.93;;;4.80;;
66175;SDS011;52977;44.816;20.538;2022-07-22T01:51:02;9.43;;;4.53;;
66175;SDS011;52977;44.816;20.538;2022-07-22T01:53:28;8.73;;;4.93;;
66175;SDS011;52977;44.816;20.538;2022-07-22T01:55:54;11.38;;;4.95;;
66175;SDS011;52977;44.816;20.538;2022-07-22T01:58:20;10.85;;;5.20;;
66175;SDS011;52977;44.816;20.538;2022-07-22T02:00:48;15.85;;;5.00;;
66175;SDS011;52977;44.816;20.538;2022-07-22T02:03:13;9.98;;;4.28;;
66175;SDS011;52977;44.816;20.538;2022-07-22T02:05:39;8.30;;;4.43;;
66175;SDS011;52977;44.816;20.538;2022-07-22T02:08:17;18.23;;;5.30;;
66175;SDS011;52977;44.816;20.538;2022-07-22T02:11:01;8.60;;;4.30;;
66175;SDS011;52977;44.816;20.538;2022-07-22T02:13:28;9.52;;;4.75;;
66175;SDS011;52977;44.816;20.538;2022-07-22T02:15:53;9.52;;;4.60;;
66175;SDS011;52977;44.816;20.538;2022-07-22T02:18:19;10.07;;;5.00;;
66175;SDS011;52977;44.816;20.538;2022-07-22T02:20:45;9.82;;;4.22;;
66175;SDS011;52977;44.816;20.538;2022-07-22T02:23:13;10.15;;;4.40;;
66175;SDS011;52977;44.816;20.538;2022-07-22T02:25:40;10.40;;;4.50;;
66175;SDS011;52977;44.816;20.538;2022-07-22T02:28:06;10.52;;;4.57;;
66175;SDS011;52977;44.816;20.538;2022-07-22T02:30:32;8.23;;;4.30;;
66175;SDS011;52977;44.816;20.538;2022-07-22T02:32:58;7.22;;;4.10;;
66175;SDS011;52977;44.816;20.538;2022-07-22T02:35:24;7.63;;;4.18;;
66175;SDS011;52977;44.816;20.538;2022-07-22T02:37:50;8.77;;;4.13;;
66175;SDS011;52977;44.816;20.538;2022-07-22T02:40:17;10.38;;;3.90;;
66175;SDS011;52977;44.816;20.538;2022-07-22T02:42:43;7.65;;;3.97;;
66175;SDS011;52977;44.816;20.538;2022-07-22T02:45:09;9.48;;;4.10;;
66175;SDS011;52977;44.816;20.538;2022-07-22T02:47:43;11.13;;;3.90;;
66175;SDS011;52977;44.816;20.538;2022-07-22T02:50:18;8.90;;;4.00;;
66175;SDS011;52977;44.816;20.538;2022-07-22T02:52:46;8.07;;;3.95;;
66175;SDS011;52977;44.816;20.538;2022-07-22T02:55:16;7.57;;;3.80;;
66175;SDS011;52977;44.816;20.538;2022-07-22T02:57:42;6.93;;;4.07;;
66175;SDS011;52977;44.816;20.538;2022-07-22T03:00:10;9.55;;;4.32;;
66175;SDS011;52977;44.816;20.538;2022-07-22T03:02:39;9.07;;;4.10;;
66175;SDS011;52977;44.816;20.538;2022-07-22T03:05:08;7.35;;;3.72;;
66175;SDS011;52977;44.816;20.538;2022-07-22T03:07:39;10.27;;;4.63;;
66175;SDS011;52977;44.816;20.538;2022-07-22T03:10:08;12.02;;;4.07;;
66175;SDS011;52977;44.816;20.538;2022-07-22T03:12:34;10.80;;;4.53;;
66175;SDS011;52977;44.816;20.538;2022-07-22T03:15:04;10.77;;;3.88;;
66175;SDS011;52977;44.816;20.538;2022-07-22T03:17:34;8.85;;;4.25;;
66175;SDS011;52977;44.816;20.538;2022-07-22T03:20:03;10.52;;;4.22;;
66175;SDS011;52977;44.816;20.538;2022-07-22T03:22:34;9.52;;;4.45;;
66175;SDS011;52977;44.816;20.538;2022-07-22T03:25:01;11.02;;;4.93;;
66175;SDS011;52977;44.816;20.538;2022-07-22T03:27:27;10.32;;;4.05;;
66175;SDS011;52977;44.816;20.538;2022-07-22T03:29:53;13.80;;;4.20;;
66175;SDS011;52977;44.816;20.538;2022-07-22T03:32:19;12.38;;;4.60;;
66175;SDS011;52977;44.816;20.538;2022-07-22T03:34:47;7.82;;;4.13;;
66175;SDS011;52977;44.816;20.538;2022-07-22T03:37:13;8.32;;;4.65;;
66175;SDS011;52977;44.816;20.538;2022-07-22T03:39:40;12.23;;;4.78;;
66175;SDS011;52977;44.816;20.538;2022-07-22T03:42:06;8.95;;;3.88;;
66175;SDS011;52977;44.816;20.538;2022-07-22T03:44:39;8.05;;;3.83;;
66175;SDS011;52977;44.816;20.538;2022-07-22T03:47:05;8.82;;;4.30;;
66175;SDS011;52977;44.816;20.538;2022-07-22T03:49:31;14.88;;;6.70;;
66175;SDS011;52977;44.816;20.538;2022-07-22T03:51:58;11.75;;;4.55;;
66175;SDS011;52977;44.816;20.538;2022-07-22T03:54:27;12.93;;;5.03;;
66175;SDS011;52977;44.816;20.538;2022-07-22T03:56:54;10.10;;;4.75;;
66175;SDS011;52977;44.816;20.538;2022-07-22T03:59:20;9.70;;;4.78;;
66175;SDS011;52977;44.816;20.538;2022-07-22T04:01:46;9.52;;;4.63;;
66175;SDS011;52977;44.816;20.538;2022-07-22T04:04:14;8.63;;;4.55;;
66175;SDS011;52977;44.816;20.538;2022-07-22T04:06:43;11.32;;;4.53;;
66175;SDS011;52977;44.816;20.538;2022-07-22T04:09:24;10.43;;;5.00;;
66175;SDS011;52977;44.816;20.538;2022-07-22T04:11:50;10.75;;;4.90;;
66175;SDS011;52977;44.816;20.538;2022-07-22T04:14:18;12.55;;;4.80;;
66175;SDS011;52977;44.816;20.538;2022-07-22T04:16:44;7.60;;;4.60;;
66175;SDS011;52977;44.816;20.538;2022-07-22T04:19:10;10.63;;;4.80;;
66175;SDS011;52977;44.816;20.538;2022-07-22T04:21:48;9.50;;;4.93;;
66175;SDS011;52977;44.816;20.538;2022-07-22T04:24:14;10.23;;;4.88;;
66175;SDS011;52977;44.816;20.538;2022-07-22T04:26:40;8.60;;;4.65;;
66175;SDS011;52977;44.816;20.538;2022-07-22T04:29:06;12.05;;;4.90;;
66175;SDS011;52977;44.816;20.538;2022-07-22T04:31:33;8.45;;;4.80;;
66175;SDS011;52977;44.816;20.538;2022-07-22T04:34:04;13.68;;;5.78;;
66175;SDS011;52977;44.816;20.538;2022-07-22T04:36:30;14.73;;;6.03;;
66175;SDS011;52977;44.816;20.538;2022-07-22T04:38:55;16.80;;;6.47;;
66175;SDS011;52977;44.816;20.538;2022-07-22T04:41:23;20.30;;;6.13;;
66175;SDS011;52977;44.816;20.538;2022-07-22T04:43:49;19.52;;;5.95;;
66175;SDS011;52977;44.816;20.538;2022-07-22T04:46:15;15.07;;;5.45;;
66175;SDS011;52977;44.816;20.538;2022-07-22T04:48:42;10.82;;;5.32;;
66175;SDS011;52977;44.816;20.538;2022-07-22T04:51:08;10.90;;;4.47;;
66175;SDS011;52977;44.816;20.538;2022-07-22T04:53:35;11.23;;;5.13;;
66175;SDS011;52977;44.816;20.538;2022-07-22T04:56:00;8.93;;;4.97;;
66175;SDS011;52977;44.816;20.538;2022-07-22T04:58:27;9.35;;;4.72;;
66175;SDS011;52977;44.816;20.538;2022-07-22T05:00:54;16.05;;;5.15;;
66175;SDS011;52977;44.816;20.538;2022-07-22T05:03:20;11.38;;;5.43;;
66175;SDS011;52977;44.816;20.538;2022-07-22T05:05:46;13.98;;;4.80;;
66175;SDS011;52977;44.816;20.538;2022-07-22T05:08:13;11.40;;;5.13;;
66175;SDS011;52977;44.816;20.538;2022-07-22T05:10:39;13.32;;;5.45;;
66175;SDS011;52977;44.816;20.538;2022-07-22T05:13:05;9.02;;;4.70;;
66175;SDS011;52977;44.816;20.538;2022-07-22T05:15:32;14.77;;;5.10;;
66175;SDS011;52977;44.816;20.538;2022-07-22T05:17:58;12.43;;;6.78;;
66175;SDS011;52977;44.816;20.538;2022-07-22T05:20:27;23.03;;;12.90;;
66175;SDS011;52977;44.816;20.538;2022-07-22T05:22:53;18.00;;;10.25;;
66175;SDS011;52977;44.816;20.538;2022-07-22T05:25:23;15.65;;;8.00;;
66175;SDS011;52977;44.816;20.538;2022-07-22T05:27:49;13.70;;;6.50;;
66175;SDS011;52977;44.816;20.538;2022-07-22T05:30:26;9.60;;;5.97;;
66175;SDS011;52977;44.816;20.538;2022-07-22T05:32:52;11.10;;;6.40;;
66175;SDS011;52977;44.816;20.538;2022-07-22T05:35:38;10.25;;;6.07;;
66175;SDS011;52977;44.816;20.538;2022-07-22T05:38:03;10.90;;;6.03;;
66175;SDS011;52977;44.816;20.538;2022-07-22T05:40:31;10.48;;;5.80;;
66175;SDS011;52977;44.816;20.538;2022-07-22T05:42:57;10.45;;;5.40;;
66175;SDS011;52977;44.816;20.538;2022-07-22T05:45:23;9.15;;;5.28;;
66175;SDS011;52977;44.816;20.538;2022-07-22T05:47:52;20.90;;;7.30;;
66175;SDS011;52977;44.816;20.538;2022-07-22T05:50:18;13.77;;;6.28;;
66175;SDS011;52977;44.816;20.538;2022-07-22T05:52:44;10.75;;;5.72;;
66175;SDS011;52977;44.816;20.538;2022-07-22T05:55:10;12.45;;;6.90;;
66175;SDS011;52977;44.816;20.538;2022-07-22T05:57:36;12.05;;;7.10;;
66175;SDS011;52977;44.816;20.538;2022-07-22T06:00:04;12.48;;;5.90;;
66175;SDS011;52977;44.816;20.538;2022-07-22T06:02:40;10.88;;;6.03;;
66175;SDS011;52977;44.816;20.538;2022-07-22T06:05:10;13.48;;;5.63;;
66175;SDS011;52977;44.816;20.538;2022-07-22T06:07:36;11.05;;;5.00;;
66175;SDS011;52977;44.816;20.538;2022-07-22T06:10:02;9.98;;;5.32;;
66175;SDS011;52977;44.816;20.538;2022-07-22T06:12:32;15.25;;;6.10;;
66175;SDS011;52977;44.816;20.538;2022-07-22T06:14:58;9.52;;;5.43;;
66175;SDS011;52977;44.816;20.538;2022-07-22T06:17:23;9.77;;;5.22;;
66175;SDS011;52977;44.816;20.538;2022-07-22T06:19:50;10.85;;;5.38;;
66175;SDS011;52977;44.816;20.538;2022-07-22T06:22:16;12.38;;;5.65;;
66175;SDS011;52977;44.816;20.538;2022-07-22T06:24:45;10.93;;;4.75;;
66175;SDS011;52977;44.816;20.538;2022-07-22T06:27:11;7.85;;;4.60;;
66175;SDS011;52977;44.816;20.538;2022-07-22T06:29:37;12.05;;;5.35;;
66175;SDS011;52977;44.816;20.538;2022-07-22T06:32:04;10.40;;;4.93;;
66175;SDS011;52977;44.816;20.538;2022-07-22T06:34:30;8.18;;;4.97;;
66175;SDS011;52977;44.816;20.538;2022-07-22T06:36:59;15.00;;;5.70;;
66175;SDS011;52977;44.816;20.538;2022-07-22T06:39:25;13.50;;;8.05;;
66175;SDS011;52977;44.816;20.538;2022-07-22T06:42:10;19.77;;;7.68;;
66175;SDS011;52977;44.816;20.538;2022-07-22T06:44:44;20.60;;;9.85;;
66175;SDS011;52977;44.816;20.538;2022-07-22T06:47:42;13.43;;;6.80;;
66175;SDS011;52977;44.816;20.538;2022-07-22T06:50:10;14.18;;;5.80;;
66175;SDS011;52977;44.816;20.538;2022-07-22T06:52:39;13.38;;;5.95;;
66175;SDS011;52977;44.816;20.538;2022-07-22T06:55:06;12.07;;;5.43;;
66175;SDS011;52977;44.816;20.538;2022-07-22T06:57:44;19.52;;;6.28;;
66175;SDS011;52977;44.816;20.538;2022-07-22T07:00:10;15.10;;;6.00;;
66175;SDS011;52977;44.816;20.538;2022-07-22T07:02:59;14.73;;;6.30;;
66175;SDS011;52977;44.816;20.538;2022-07-22T07:05:25;18.25;;;5.60;;
66175;SDS011;52977;44.816;20.538;2022-07-22T07:07:53;12.88;;;5.80;;
66175;SDS011;52977;44.816;20.538;2022-07-22T07:10:20;14.05;;;5.03;;
66175;SDS011;52977;44.816;20.538;2022-07-22T07:12:55;13.50;;;5.93;;
66175;SDS011;52977;44.816;20.538;2022-07-22T07:15:26;13.48;;;5.45;;
66175;SDS011;52977;44.816;20.538;2022-07-22T07:18:06;11.75;;;5.50;;
66175;SDS011;52977;44.816;20.538;2022-07-22T07:20:32;10.15;;;5.22;;
66175;SDS011;52977;44.816;20.538;2022-07-22T07:23:01;12.75;;;5.38;;
66175;SDS011;52977;44.816;20.538;2022-07-22T07:25:30;15.00;;;5.65;;
66175;SDS011;52977;44.816;20.538;2022-07-22T07:27:55;13.95;;;5.35;;
66175;SDS011;52977;44.816;20.538;2022-07-22T07:30:44;13.70;;;5.38;;
66175;SDS011;52977;44.816;20.538;2022-07-22T07:33:10;11.77;;;5.97;;
66175;SDS011;52977;44.816;20.538;2022-07-22T07:35:40;9.77;;;5.43;;
66175;SDS011;52977;44.816;20.538;2022-07-22T07:38:06;13.45;;;5.25;;
66175;SDS011;52977;44.816;20.538;2022-07-22T07:40:33;16.50;;;5.63;;
66175;SDS011;52977;44.816;20.538;2022-07-22T07:42:59;13.13;;;5.00;;
66175;SDS011;52977;44.816;20.538;2022-07-22T07:45:25;17.08;;;6.47;;
66175;SDS011;52977;44.816;20.538;2022-07-22T07:47:51;13.20;;;6.20;;
66175;SDS011;52977;44.816;20.538;2022-07-22T07:50:17;14.18;;;5.88;;
66175;SDS011;52977;44.816;20.538;2022-07-22T07:52:43;13.10;;;6.47;;
66175;SDS011;52977;44.816;20.538;2022-07-22T07:55:14;11.43;;;5.50;;
66175;SDS011;52977;44.816;20.538;2022-07-22T07:57:42;17.60;;;5.55;;
66175;SDS011;52977;44.816;20.538;2022-07-22T08:02:42;13.27;;;5.30;;
66175;SDS011;52977;44.816;20.538;2022-07-22T08:05:09;14.25;;;6.82;;
66175;SDS011;52977;44.816;20.538;2022-07-22T08:07:36;12.32;;;4.65;;
66175;SDS011;52977;44.816;20.538;2022-07-22T08:10:04;10.85;;;4.65;;
66175;SDS011;52977;44.816;20.538;2022-07-22T08:12:51;9.38;;;4.07;;
66175;SDS011;52977;44.816;20.538;2022-07-22T08:15:34;7.97;;;3.90;;
66175;SDS011;52977;44.816;20.538;2022-07-22T08:18:06;5.88;;;3.67;;
66175;SDS011;52977;44.816;20.538;2022-07-22T08:20:32;8.32;;;4.10;;
66175;SDS011;52977;44.816;20.538;2022-07-22T08:22:57;9.57;;;3.78;;
66175;SDS011;52977;44.816;20.538;2022-07-22T08:25:26;6.90;;;3.22;;
66175;SDS011;52977;44.816;20.538;2022-07-22T08:27:52;7.35;;;2.92;;
66175;SDS011;52977;44.816;20.538;2022-07-22T08:30:18;5.00;;;2.60;;
66175;SDS011;52977;44.816;20.538;2022-07-22T08:32:51;6.63;;;3.30;;
66175;SDS011;52977;44.816;20.538;2022-07-22T08:35:16;5.65;;;2.92;;
66175;SDS011;52977;44.816;20.538;2022-07-22T08:37:45;8.25;;;2.75;;
66175;SDS011;52977;44.816;20.538;2022-07-22T08:40:16;10.15;;;3.60;;
66175;SDS011;52977;44.816;20.538;2022-07-22T08:42:43;7.38;;;3.20;;
66175;SDS011;52977;44.816;20.538;2022-07-22T08:45:10;8.98;;;3.30;;
66175;SDS011;52977;44.816;20.538;2022-07-22T08:47:37;5.38;;;2.60;;
66175;SDS011;52977;44.816;20.538;2022-07-22T08:50:13;5.70;;;2.70;;
66175;SDS011;52977;44.816;20.538;2022-07-22T08:52:48;5.00;;;2.90;;
66175;SDS011;52977;44.816;20.538;2022-07-22T08:55:17;8.07;;;2.90;;
66175;SDS011;52977;44.816;20.538;2022-07-22T08:57:44;6.90;;;3.35;;
66175;SDS011;52977;44.816;20.538;2022-07-22T09:00:12;5.88;;;2.88;;
66175;SDS011;52977;44.816;20.538;2022-07-22T09:02:41;5.15;;;2.70;;
66175;SDS011;52977;44.816;20.538;2022-07-22T09:05:10;11.57;;;3.35;;
66175;SDS011;52977;44.816;20.538;2022-07-22T09:07:40;8.02;;;3.17;;
66175;SDS011;52977;44.816;20.538;2022-07-22T09:10:21;6.95;;;3.00;;
66175;SDS011;52977;44.816;20.538;2022-07-22T09:13:09;6.95;;;3.08;;
66175;SDS011;52977;44.816;20.538;2022-07-22T09:15:51;7.95;;;2.97;;
66175;SDS011;52977;44.816;20.538;2022-07-22T09:18:50;6.93;;;3.60;;
66175;SDS011;52977;44.816;20.538;2022-07-22T09:21:30;7.25;;;3.65;;
66175;SDS011;52977;44.816;20.538;2022-07-22T09:24:26;7.53;;;3.55;;
66175;SDS011;52977;44.816;20.538;2022-07-22T09:26:56;5.50;;;3.38;;
66175;SDS011;52977;44.816;20.538;2022-07-22T09:29:35;6.80;;;3.28;;
66175;SDS011;52977;44.816;20.538;2022-07-22T09:32:17;7.05;;;3.42;;
66175;SDS011;52977;44.816;20.538;2022-07-22T09:34:54;8.40;;;3.35;;
66175;SDS011;52977;44.816;20.538;2022-07-22T09:37:29;8.13;;;3.05;;
66175;SDS011;52977;44.816;20.538;2022-07-22T09:40:03;8.00;;;2.97;;
66175;SDS011;52977;44.816;20.538;2022-07-22T09:42:50;7.40;;;3.50;;
66175;SDS011;52977;44.816;20.538;2022-07-22T09:45:24;6.78;;;2.85;;
66175;SDS011;52977;44.816;20.538;2022-07-22T09:47:53;7.82;;;2.88;;
66175;SDS011;52977;44.816;20.538;2022-07-22T09:50:38;5.78;;;2.70;;
66175;SDS011;52977;44.816;20.538;2022-07-22T09:53:30;8.13;;;3.50;;
66175;SDS011;52977;44.816;20.538;2022-07-22T09:56:17;5.50;;;2.80;;
66175;SDS011;52977;44.816;20.538;2022-07-22T09:58:43;7.35;;;3.30;;
66175;SDS011;52977;44.816;20.538;2022-07-22T10:01:17;5.05;;;2.90;;
66175;SDS011;52977;44.816;20.538;2022-07-22T10:03:43;5.85;;;3.80;;
66175;SDS011;52977;44.816;20.538;2022-07-22T10:06:16;5.97;;;3.13;;
66175;SDS011;52977;44.816;20.538;2022-07-22T10:08:42;8.32;;;3.25;;
66175;SDS011;52977;44.816;20.538;2022-07-22T10:11:08;6.00;;;3.05;;
66175;SDS011;52977;44.816;20.538;2022-07-22T10:13:37;7.50;;;3.85;;
66175;SDS011;52977;44.816;20.538;2022-07-22T10:16:05;10.98;;;3.10;;
66175;SDS011;52977;44.816;20.538;2022-07-22T10:18:32;7.20;;;3.00;;
66175;SDS011;52977;44.816;20.538;2022-07-22T10:21:09;4.90;;;2.90;;
66175;SDS011;52977;44.816;20.538;2022-07-22T10:23:36;7.50;;;3.03;;
66175;SDS011;52977;44.816;20.538;2022-07-22T10:26:21;5.65;;;3.05;;
66175;SDS011;52977;44.816;20.538;2022-07-22T10:29:26;7.43;;;3.53;;
66175;SDS011;52977;44.816;20.538;2022-07-22T10:48:11;6.35;;;2.50;;
66175;SDS011;52977;44.816;20.538;2022-07-22T10:50:42;4.05;;;2.15;;
66175;SDS011;52977;44.816;20.538;2022-07-22T10:53:24;5.30;;;2.42;;
66175;SDS011;52977;44.816;20.538;2022-07-22T10:56:06;5.45;;;2.80;;
66175;SDS011;52977;44.816;20.538;2022-07-22T11:01:12;6.57;;;2.75;;
66175;SDS011;52977;44.816;20.538;2022-07-22T11:03:40;5.80;;;2.63;;
66175;SDS011;52977;44.816;20.538;2022-07-22T11:08:55;7.65;;;2.33;;
66175;SDS011;52977;44.816;20.538;2022-07-22T11:11:35;5.15;;;2.55;;
66175;SDS011;52977;44.816;20.538;2022-07-22T11:14:22;5.35;;;2.65;;
66175;SDS011;52977;44.816;20.538;2022-07-22T11:16:52;7.15;;;2.60;;
66175;SDS011;52977;44.816;20.538;2022-07-22T11:19:21;5.00;;;2.40;;
66175;SDS011;52977;44.816;20.538;2022-07-22T11:21:51;5.18;;;2.40;;
66175;SDS011;52977;44.816;20.538;2022-07-22T11:24:19;5.13;;;2.35;;
66175;SDS011;52977;44.816;20.538;2022-07-22T11:26:46;5.63;;;2.28;;
66175;SDS011;52977;44.816;20.538;2022-07-22T11:31:49;8.98;;;2.53;;
66175;SDS011;52977;44.816;20.538;2022-07-22T11:34:15;5.43;;;2.75;;
66175;SDS011;52977;44.816;20.538;2022-07-22T11:36:42;6.78;;;2.50;;
66175;SDS011;52977;44.816;20.538;2022-07-22T11:39:10;5.07;;;2.50;;
66175;SDS011;52977;44.816;20.538;2022-07-22T11:41:37;4.20;;;2.53;;
66175;SDS011;52977;44.816;20.538;2022-07-22T11:44:03;4.35;;;2.67;;
66175;SDS011;52977;44.816;20.538;2022-07-22T11:46:37;7.88;;;2.50;;
66175;SDS011;52977;44.816;20.538;2022-07-22T11:49:07;4.93;;;2.45;;
66175;SDS011;52977;44.816;20.538;2022-07-22T11:51:36;4.53;;;2.20;;
66175;SDS011;52977;44.816;20.538;2022-07-22T11:54:03;6.15;;;2.40;;
66175;SDS011;52977;44.816;20.538;2022-07-22T11:56:30;4.53;;;2.45;;
66175;SDS011;52977;44.816;20.538;2022-07-22T11:58:59;8.30;;;2.87;;
66175;SDS011;52977;44.816;20.538;2022-07-22T12:01:34;4.75;;;2.63;;
66175;SDS011;52977;44.816;20.538;2022-07-22T12:04:11;7.47;;;4.28;;
66175;SDS011;52977;44.816;20.538;2022-07-22T12:06:41;8.13;;;4.85;;
66175;SDS011;52977;44.816;20.538;2022-07-22T12:09:22;7.13;;;2.55;;
66175;SDS011;52977;44.816;20.538;2022-07-22T12:11:51;7.57;;;2.60;;
66175;SDS011;52977;44.816;20.538;2022-07-22T12:14:19;4.45;;;2.53;;
66175;SDS011;52977;44.816;20.538;2022-07-22T12:19:25;4.15;;;2.28;;
66175;SDS011;52977;44.816;20.538;2022-07-22T12:26:53;6.20;;;2.47;;
66175;SDS011;52977;44.816;20.538;2022-07-22T12:29:26;4.40;;;2.30;;
66175;SDS011;52977;44.816;20.538;2022-07-22T12:37:31;6.30;;;3.03;;
66175;SDS011;52977;44.816;20.538;2022-07-22T12:42:43;5.95;;;2.72;;
66175;SDS011;52977;44.816;20.538;2022-07-22T12:45:12;6.85;;;3.13;;
66175;SDS011;52977;44.816;20.538;2022-07-22T12:47:53;5.35;;;3.10;;
66175;SDS011;52977;44.816;20.538;2022-07-22T12:53:16;6.30;;;3.08;;
66175;SDS011;52977;44.816;20.538;2022-07-22T12:58:20;6.32;;;2.47;;
66175;SDS011;52977;44.816;20.538;2022-07-22T13:00:50;3.95;;;2.63;;
66175;SDS011;52977;44.816;20.538;2022-07-22T13:03:17;4.55;;;2.63;;
66175;SDS011;52977;44.816;20.538;2022-07-22T13:05:44;5.25;;;2.60;;
66175;SDS011;52977;44.816;20.538;2022-07-22T13:08:12;4.63;;;2.85;;
66175;SDS011;52977;44.816;20.538;2022-07-22T13:10:37;6.80;;;4.38;;
66175;SDS011;52977;44.816;20.538;2022-07-22T13:13:03;6.07;;;2.97;;
66175;SDS011;52977;44.816;20.538;2022-07-22T13:15:29;7.47;;;2.80;;
66175;SDS011;52977;44.816;20.538;2022-07-22T13:17:55;9.23;;;5.63;;
66175;SDS011;52977;44.816;20.538;2022-07-22T13:20:21;6.43;;;4.07;;
66175;SDS011;52977;44.816;20.538;2022-07-22T13:22:46;5.25;;;2.60;;
66175;SDS011;52977;44.816;20.538;2022-07-22T13:25:12;5.65;;;2.30;;
66175;SDS011;52977;44.816;20.538;2022-07-22T13:27:38;3.80;;;2.05;;
66175;SDS011;52977;44.816;20.538;2022-07-22T13:30:05;5.10;;;2.85;;
66175;SDS011;52977;44.816;20.538;2022-07-22T13:32:31;4.35;;;2.30;;
66175;SDS011;52977;44.816;20.538;2022-07-22T13:34:57;4.72;;;2.30;;
66175;SDS011;52977;44.816;20.538;2022-07-22T13:37:24;4.22;;;2.80;;
66175;SDS011;52977;44.816;20.538;2022-07-22T13:39:50;5.32;;;2.55;;
66175;SDS011;52977;44.816;20.538;2022-07-22T13:42:16;5.80;;;2.25;;
66175;SDS011;52977;44.816;20.538;2022-07-22T13:44:46;4.13;;;2.53;;
66175;SDS011;52977;44.816;20.538;2022-07-22T13:47:13;7.95;;;3.55;;
66175;SDS011;52977;44.816;20.538;2022-07-22T13:49:38;5.53;;;2.58;;
66175;SDS011;52977;44.816;20.538;2022-07-22T13:52:04;5.07;;;2.92;;
66175;SDS011;52977;44.816;20.538;2022-07-22T13:54:31;7.28;;;4.13;;
66175;SDS011;52977;44.816;20.538;2022-07-22T13:56:58;6.05;;;2.80;;
66175;SDS011;52977;44.816;20.538;2022-07-22T13:59:24;7.35;;;2.50;;
66175;SDS011;52977;44.816;20.538;2022-07-22T14:01:50;3.72;;;2.15;;
66175;SDS011;52977;44.816;20.538;2022-07-22T14:04:16;6.45;;;3.20;;
66175;SDS011;52977;44.816;20.538;2022-07-22T14:06:42;3.83;;;2.13;;
66175;SDS011;52977;44.816;20.538;2022-07-22T14:09:07;7.15;;;2.50;;
66175;SDS011;52977;44.816;20.538;2022-07-22T14:11:33;4.80;;;3.08;;
66175;SDS011;52977;44.816;20.538;2022-07-22T14:13:59;4.28;;;1.90;;
66175;SDS011;52977;44.816;20.538;2022-07-22T14:16:28;4.03;;;2.60;;
66175;SDS011;52977;44.816;20.538;2022-07-22T14:19:00;4.75;;;2.40;;
66175;SDS011;52977;44.816;20.538;2022-07-22T14:21:30;8.05;;;2.40;;
66175;SDS011;52977;44.816;20.538;2022-07-22T14:23:56;5.25;;;2.33;;
66175;SDS011;52977;44.816;20.538;2022-07-22T14:26:24;3.83;;;2.38;;
66175;SDS011;52977;44.816;20.538;2022-07-22T14:28:50;3.83;;;2.33;;
66175;SDS011;52977;44.816;20.538;2022-07-22T14:31:15;5.00;;;2.30;;
66175;SDS011;52977;44.816;20.538;2022-07-22T14:33:41;7.35;;;4.50;;
66175;SDS011;52977;44.816;20.538;2022-07-22T14:36:07;7.10;;;3.80;;
66175;SDS011;52977;44.816;20.538;2022-07-22T14:38:33;5.95;;;2.55;;
66175;SDS011;52977;44.816;20.538;2022-07-22T14:40:58;6.38;;;2.63;;
66175;SDS011;52977;44.816;20.538;2022-07-22T14:43:24;6.68;;;4.32;;
66175;SDS011;52977;44.816;20.538;2022-07-22T14:45:51;5.00;;;2.60;;
66175;SDS011;52977;44.816;20.538;2022-07-22T14:48:16;4.15;;;2.42;;
66175;SDS011;52977;44.816;20.538;2022-07-22T14:50:42;8.00;;;3.55;;
66175;SDS011;52977;44.816;20.538;2022-07-22T14:53:08;3.65;;;2.58;;
66175;SDS011;52977;44.816;20.538;2022-07-22T14:55:34;4.57;;;2.35;;
66175;SDS011;52977;44.816;20.538;2022-07-22T14:57:59;6.70;;;2.53;;
66175;SDS011;52977;44.816;20.538;2022-07-22T15:00:25;5.80;;;2.47;;
66175;SDS011;52977;44.816;20.538;2022-07-22T15:02:50;4.15;;;2.08;;
66175;SDS011;52977;44.816;20.538;2022-07-22T15:05:16;5.60;;;2.42;;
66175;SDS011;52977;44.816;20.538;2022-07-22T15:07:41;5.63;;;3.05;;
66175;SDS011;52977;44.816;20.538;2022-07-22T15:10:08;5.32;;;2.50;;
66175;SDS011;52977;44.816;20.538;2022-07-22T15:12:35;4.03;;;2.45;;
66175;SDS011;52977;44.816;20.538;2022-07-22T15:15:01;9.05;;;5.30;;
66175;SDS011;52977;44.816;20.538;2022-07-22T15:17:28;4.68;;;2.10;;
66175;SDS011;52977;44.816;20.538;2022-07-22T15:20:02;5.25;;;2.55;;
66175;SDS011;52977;44.816;20.538;2022-07-22T15:22:30;4.35;;;2.83;;
66175;SDS011;52977;44.816;20.538;2022-07-22T15:24:56;7.03;;;2.38;;
66175;SDS011;52977;44.816;20.538;2022-07-22T15:27:22;4.85;;;2.40;;